Time;durP1;ratioP1;P1;durP2;ratioP2;P2;SDS_P1;SDS_P2;PMS_P1;PMS_P2;Temp;Humidity;BMP_temperature;BMP_pressure;BME280_temperature;BME280_humidity;BME280_pressure;Samples;Min_cycle;Max_cycle;Signal;HPM_P1;HPM_P2
2023/11/20 00:01:08;;;;;;;6.13;2.35;;;;;;;13.13;82.47;98790.28;4996007;28;20056;-88
2023/11/20 00:05:06;;;;;;;8.45;2.50;;;;;;;13.09;82.44;98789.69;4978557;28;20046;-88
2023/11/20 00:07:29;;;;;;;4.28;2.10;;;;;;;13.13;82.30;98785.81;4987408;28;20054;-88
2023/11/20 00:10:16;;;;;;;5.28;2.55;;;;;;;13.11;82.36;98790.41;4993414;28;20418;-88
2023/11/20 00:12:56;;;;;;;3.80;2.38;;;;;;;13.11;82.68;98779.84;4976561;28;20050;-88
2023/11/20 00:15:38;;;;;;;4.07;2.50;;;;;;;13.13;82.68;98785.81;4976551;28;20074;-87
2023/11/20 00:18:11;;;;;;;5.40;2.45;;;;;;;13.14;82.62;98792.78;4977040;28;20054;-88
2023/11/20 00:20:48;;;;;;;4.25;2.40;;;;;;;13.12;82.75;98784.16;4977092;28;20054;-87
2023/11/20 00:23:25;;;;;;;6.53;2.55;;;;;;;13.13;82.71;98793.75;4975956;28;20109;-87
2023/11/20 00:30:52;;;;;;;6.72;2.60;;;;;;;13.14;82.50;98781.38;4990283;28;20065;-88
2023/11/20 00:37:00;;;;;;;6.53;2.70;;;;;;;13.15;82.43;98797.09;4903555;29;20051;-88
2023/11/20 00:39:30;;;;;;;6.00;2.85;;;;;;;13.13;82.60;98791.09;4975097;28;20129;-88
2023/11/20 00:42:29;;;;;;;;;;;;;;;;;;;;;
2023/11/20 00:55:20;;;;;;;;;;;;;;;;;;;;;
2023/11/20 00:58:30;;;;;;;6.85;2.13;;;;;;;13.12;82.65;98797.34;4985134;28;20086;-89
2023/11/20 01:01:54;;;;;;;6.68;2.63;;;;;;;13.11;82.52;98808.91;4977893;28;20125;-87
2023/11/20 01:09:10;;;;;;;3.42;1.90;;;;;;;13.12;82.45;98810.56;4911275;29;20056;-87
2023/11/20 01:14:32;;;;;;;2.47;1.90;;;;;;;13.14;82.94;98821.88;4954427;26;20553;-75
2023/11/20 01:16:58;;;;;;;3.40;2.20;;;;;;;13.14;82.95;98813.09;4994380;28;20081;-74
2023/11/20 01:19:25;;;;;;;3.10;1.73;;;;;;;13.14;82.96;98813.09;5011620;28;20085;-77
2023/11/20 01:21:51;;;;;;;5.82;1.90;;;;;;;13.13;83.18;98817.53;5011570;28;20443;-78
2023/11/20 01:24:18;;;;;;;3.78;1.58;;;;;;;13.14;83.22;98819.22;5011564;28;20045;-74
2023/11/20 01:29:13;;;;;;;4.75;1.77;;;;;;;13.15;82.93;98820.03;5020001;23;20058;-73
2023/11/20 01:31:39;;;;;;;2.10;1.60;;;;;;;13.15;83.00;98815.59;5012678;28;20100;-74
2023/11/20 01:34:06;;;;;;;2.33;1.60;;;;;;;13.16;83.24;98816.44;5012576;28;20049;-73
2023/11/20 01:36:33;;;;;;;3.38;1.70;;;;;;;13.15;83.23;98815.59;4994115;28;20092;-76
2023/11/20 01:38:59;;;;;;;2.85;1.70;;;;;;;13.15;83.12;98812.97;5011374;28;20058;-73
2023/11/20 01:41:28;;;;;;;3.22;1.70;;;;;;;13.15;83.14;98815.59;5011286;28;20046;-74
2023/11/20 01:43:55;;;;;;;3.88;1.50;;;;;;;13.16;83.09;98825.19;5011216;28;20105;-75
2023/11/20 01:46:26;;;;;;;3.88;1.60;;;;;;;13.17;83.10;98818.13;5011484;28;20149;-73
2023/11/20 01:48:53;;;;;;;1.13;1.02;;;;;;;13.19;83.02;98825.94;5011365;28;20050;-75
2023/11/20 01:51:20;;;;;;;4.80;1.67;;;;;;;13.19;82.98;98824.09;5011294;28;20060;-75
2023/11/20 01:53:47;;;;;;;2.55;1.63;;;;;;;13.19;82.99;98823.28;5011167;28;20052;-74
2023/11/20 01:56:14;;;;;;;5.45;1.60;;;;;;;13.18;83.14;98824.22;5013639;28;20093;-76
2023/11/20 01:58:41;;;;;;;1.48;1.20;;;;;;;13.20;83.03;98824.94;5014890;28;20057;-76
2023/11/20 02:01:08;;;;;;;4.05;1.50;;;;;;;13.20;83.13;98819.66;5014837;28;20081;-73
2023/11/20 02:03:35;;;;;;;1.55;1.10;;;;;;;13.20;82.90;98817.03;5014632;28;20080;-74
2023/11/20 02:06:02;;;;;;;2.08;1.20;;;;;;;13.20;82.79;98817.03;5014727;28;20054;-77
2023/11/20 02:08:28;;;;;;;3.72;1.42;;;;;;;13.18;82.75;98809.22;5014462;28;20050;-73
2023/11/20 02:11:01;;;;;;;2.10;1.40;;;;;;;13.17;82.85;98815.47;5014422;28;20506;-76
2023/11/20 02:13:29;;;;;;;3.53;1.58;;;;;;;13.18;82.77;98822.44;5014409;28;20568;-73
2023/11/20 02:15:56;;;;;;;3.47;1.40;;;;;;;13.16;82.93;98822.56;5014584;28;20140;-77
2023/11/20 02:18:29;;;;;;;2.47;1.25;;;;;;;13.14;82.84;98811.28;5014083;28;20513;-74
2023/11/20 02:20:56;;;;;;;2.88;1.30;;;;;;;13.17;82.78;98807.56;5014542;28;20050;-75
2023/11/20 02:23:23;;;;;;;4.60;1.45;;;;;;;13.15;82.87;98814.75;5014135;28;20085;-74
2023/11/20 02:26:11;;;;;;;4.75;1.40;;;;;;;13.13;82.79;98817.53;5014407;28;20110;-74
2023/11/20 02:28:43;;;;;;;1.30;1.10;;;;;;;13.13;82.85;98814.88;4958093;28;20045;-77
2023/11/20 02:31:11;;;;;;;2.03;1.08;;;;;;;13.14;82.59;98807.81;5014067;28;20418;-74
2023/11/20 02:33:39;;;;;;;1.27;1.02;;;;;;;13.13;83.00;98809.59;5013920;28;20046;-74
2023/11/20 02:36:05;;;;;;;3.38;1.30;;;;;;;13.12;82.85;98818.50;5014028;28;20049;-78
2023/11/20 02:38:33;;;;;;;3.92;1.60;;;;;;;13.11;82.86;98814.19;5013913;28;20100;-74
2023/11/20 02:41:00;;;;;;;2.05;1.50;;;;;;;13.10;82.98;98804.59;5014221;28;20046;-74
2023/11/20 02:43:27;;;;;;;1.92;1.33;;;;;;;13.09;82.90;98818.75;5013894;28;20050;-75
2023/11/20 02:45:55;;;;;;;1.75;1.10;;;;;;;13.09;82.95;98813.44;5013839;28;20479;-73
2023/11/20 02:48:23;;;;;;;3.45;1.30;;;;;;;13.09;83.00;98810.00;5013937;28;20596;-73
2023/11/20 02:50:49;;;;;;;3.00;1.55;;;;;;;13.09;82.97;98805.53;5013937;28;20054;-73
2023/11/20 02:53:16;;;;;;;1.10;1.00;;;;;;;13.08;83.06;98805.69;5013372;28;20687;-73
2023/11/20 02:55:42;;;;;;;1.75;1.50;;;;;;;13.07;82.89;98810.13;5013636;28;20521;-80
2023/11/20 02:58:09;;;;;;;1.58;1.45;;;;;;;13.07;82.89;98806.63;5013395;28;20050;-74
2023/11/20 03:00:37;;;;;;;3.35;1.30;;;;;;;13.08;83.44;98819.72;5013676;28;20124;-74
2023/11/20 03:03:04;;;;;;;2.90;1.45;;;;;;;13.07;82.78;98818.03;5013265;28;20438;-73
2023/11/20 03:05:31;;;;;;;1.70;1.30;;;;;;;13.06;83.10;98813.72;4996146;28;20065;-79
2023/11/20 03:07:57;;;;;;;2.25;1.40;;;;;;;13.06;83.16;98816.38;5012598;28;20137;-78
2023/11/20 03:10:26;;;;;;;3.10;1.23;;;;;;;13.05;83.07;98809.41;4995903;28;20060;-75
2023/11/20 03:12:52;;;;;;;1.45;1.35;;;;;;;13.05;82.99;98820.00;5013090;28;20081;-73
2023/11/20 03:15:20;;;;;;;1.85;1.23;;;;;;;13.07;83.15;98828.59;5013013;28;20050;-73
2023/11/20 03:17:46;;;;;;;3.08;1.50;;;;;;;13.05;82.95;98817.34;5013175;28;20042;-74
2023/11/20 03:20:13;;;;;;;2.60;1.30;;;;;;;13.05;82.92;98830.56;5013224;28;20058;-73
2023/11/20 03:22:39;;;;;;;1.33;1.10;;;;;;;13.04;82.89;98818.28;5013073;28;20083;-74
2023/11/20 03:25:06;;;;;;;2.80;1.25;;;;;;;13.05;82.79;98829.69;5012822;28;20578;-73
2023/11/20 03:27:32;;;;;;;2.20;1.23;;;;;;;13.02;82.76;98818.41;5012990;28;20077;-74
2023/11/20 03:29:59;;;;;;;3.10;1.70;;;;;;;13.02;82.62;98828.16;5013078;28;20454;-73
2023/11/20 03:32:25;;;;;;;1.98;1.33;;;;;;;13.02;83.11;98822.88;5013147;28;20050;-73
2023/11/20 03:34:52;;;;;;;3.28;1.60;;;;;;;13.02;82.88;98830.81;5013018;28;20546;-73
2023/11/20 03:37:18;;;;;;;2.85;1.58;;;;;;;13.01;82.93;98832.59;5013034;28;20050;-73
2023/11/20 03:39:45;;;;;;;3.58;1.60;;;;;;;13.00;82.98;98828.28;5012899;28;20476;-82
2023/11/20 03:42:12;;;;;;;2.35;1.40;;;;;;;13.01;82.99;98821.19;5012558;28;20358;-74
2023/11/20 03:44:38;;;;;;;3.17;1.67;;;;;;;13.00;82.85;98830.91;5012898;28;20049;-73
2023/11/20 03:47:05;;;;;;;2.92;1.70;;;;;;;12.99;82.90;98836.31;5012670;28;20676;-73
2023/11/20 03:49:31;;;;;;;2.88;1.77;;;;;;;12.99;83.05;98825.75;5012565;28;20793;-73
2023/11/20 03:51:58;;;;;;;2.85;1.60;;;;;;;12.97;83.00;98823.25;5012575;28;20136;-76
2023/11/20 03:54:24;;;;;;;2.10;1.65;;;;;;;12.97;83.07;98831.16;4995136;28;20486;-74
2023/11/20 03:56:51;;;;;;;4.85;1.90;;;;;;;12.96;83.25;98845.34;5012739;28;20077;-74
2023/11/20 03:59:17;;;;;;;4.35;2.00;;;;;;;12.95;82.98;98838.38;5012673;28;20050;-74
2023/11/20 04:01:44;;;;;;;5.35;1.80;;;;;;;12.95;83.01;98827.81;5012648;28;20141;-73
2023/11/20 04:04:10;;;;;;;3.53;2.03;;;;;;;12.94;82.71;98826.16;5012372;28;20041;-73
2023/11/20 04:06:37;;;;;;;3.20;1.80;;;;;;;12.94;83.15;98830.59;5012435;28;20057;-74
2023/11/20 04:09:04;;;;;;;3.42;2.00;;;;;;;12.94;82.86;98842.00;5012321;28;20638;-74
2023/11/20 04:11:30;;;;;;;3.25;1.75;;;;;;;12.95;83.14;98853.38;5012295;28;20089;-76
2023/11/20 04:13:57;;;;;;;3.08;1.63;;;;;;;12.94;83.03;98844.66;4994464;28;20050;-74
2023/11/20 04:16:23;;;;;;;3.80;2.00;;;;;;;12.94;82.92;98849.06;5012273;28;20064;-77
2023/11/20 04:18:50;;;;;;;3.17;1.90;;;;;;;12.93;82.71;98847.41;5012002;28;20422;-73
2023/11/20 04:21:17;;;;;;;5.03;2.08;;;;;;;12.92;82.90;98836.00;5012158;28;20141;-74
2023/11/20 04:23:44;;;;;;;3.25;1.63;;;;;;;12.92;82.79;98846.56;5011680;28;20064;-75
2023/11/20 04:26:10;;;;;;;5.68;1.83;;;;;;;12.91;82.74;98847.53;5011986;28;20478;-72
2023/11/20 04:28:37;;;;;;;3.65;1.63;;;;;;;12.89;82.99;98850.28;5012209;28;20564;-73
2023/11/20 04:31:04;;;;;;;3.17;1.50;;;;;;;12.90;82.63;98845.84;5012166;28;20129;-74
2023/11/20 04:33:32;;;;;;;5.85;1.50;;;;;;;12.88;82.60;98850.41;5011942;28;20461;-75
2023/11/20 04:36:02;;;;;;;2.50;1.50;;;;;;;12.86;82.57;98832.03;5011993;28;20050;-76
2023/11/20 04:38:30;;;;;;;2.45;1.27;;;;;;;12.85;82.63;98846.22;5011797;28;20050;-77
2023/11/20 04:40:57;;;;;;;2.30;1.30;;;;;;;12.84;82.77;98843.69;5011848;28;20049;-73
2023/11/20 04:43:24;;;;;;;4.57;1.20;;;;;;;12.81;82.83;98844.78;5011548;28;20525;-76
2023/11/20 04:45:50;;;;;;;2.95;1.25;;;;;;;12.80;82.56;98848.41;5011962;28;20132;-74
2023/11/20 04:48:17;;;;;;;4.60;1.50;;;;;;;12.79;82.58;98845.88;5011819;28;20633;-77
2023/11/20 04:50:43;;;;;;;2.03;1.38;;;;;;;12.79;82.89;98844.09;5011596;28;20045;-77
2023/11/20 04:53:12;;;;;;;6.00;1.73;;;;;;;12.77;82.89;98843.34;5011458;28;20053;-74
2023/11/20 04:55:39;;;;;;;2.85;1.38;;;;;;;12.77;82.85;98843.34;5011911;28;20104;-75
2023/11/20 04:58:05;;;;;;;2.15;1.35;;;;;;;12.76;82.69;98842.50;5011773;28;20050;-74
2023/11/20 05:00:33;;;;;;;4.97;1.75;;;;;;;12.75;82.80;98837.38;4994394;28;20391;-74
2023/11/20 05:03:00;;;;;;;6.72;2.22;;;;;;;12.74;82.91;98839.16;4994212;28;20061;-74
2023/11/20 05:05:26;;;;;;;5.10;1.50;;;;;;;12.76;82.73;98836.41;5011738;28;20060;-74
2023/11/20 05:07:54;;;;;;;7.47;2.15;;;;;;;12.74;82.79;98848.88;5011412;28;20084;-73
2023/11/20 05:10:23;;;;;;;7.00;1.90;;;;;;;12.71;82.80;98847.31;5011677;28;20061;-74
2023/11/20 05:12:53;;;;;;;4.03;1.48;;;;;;;12.73;82.72;98849.84;4994286;28;20046;-78
2023/11/20 05:15:19;;;;;;;5.55;1.98;;;;;;;12.73;83.09;98855.13;5011626;28;20077;-74
2023/11/20 05:17:46;;;;;;;8.45;1.80;;;;;;;12.73;82.83;98852.50;5011453;28;20474;-74
2023/11/20 05:20:12;;;;;;;5.75;2.00;;;;;;;12.72;82.98;98864.88;4994087;28;20137;-73
2023/11/20 05:22:39;;;;;;;4.97;1.85;;;;;;;12.73;82.90;98853.34;5011248;28;20042;-74
2023/11/20 05:25:05;;;;;;;5.70;2.63;;;;;;;12.73;83.00;98860.41;5011653;28;20050;-78
2023/11/20 05:27:33;;;;;;;5.63;2.33;;;;;;;12.73;82.94;98857.78;5011651;28;20258;-80
2023/11/20 05:30:00;;;;;;;5.07;2.30;;;;;;;12.73;82.97;98869.19;5012134;28;20089;-75
2023/11/20 05:32:26;;;;;;;9.38;2.63;;;;;;;12.71;82.81;98863.16;5015063;28;20062;-74
2023/11/20 05:34:53;;;;;;;8.50;2.50;;;;;;;12.72;82.93;98866.66;4997444;28;20462;-74
2023/11/20 05:37:20;;;;;;;6.30;2.63;;;;;;;12.71;82.78;98863.16;5015546;28;20052;-74
2023/11/20 05:39:46;;;;;;;6.25;2.60;;;;;;;12.72;82.86;98864.88;5015319;28;20116;-78
2023/11/20 05:42:13;;;;;;;4.90;2.42;;;;;;;12.71;83.01;98865.81;5015033;28;20081;-74
2023/11/20 05:44:39;;;;;;;7.28;2.20;;;;;;;12.73;82.89;98865.69;5015088;28;20071;-73
2023/11/20 05:47:06;;;;;;;8.18;2.55;;;;;;;12.72;82.90;98877.22;5015008;28;20054;-73
2023/11/20 05:49:32;;;;;;;7.70;3.22;;;;;;;12.72;82.81;98871.94;4997273;28;20062;-74
2023/11/20 05:51:59;;;;;;;6.78;2.70;;;;;;;12.71;82.70;98867.63;5014575;28;20054;-75
2023/11/20 05:54:25;;;;;;;4.97;2.60;;;;;;;12.71;82.80;98870.28;5015022;28;20048;-73
2023/11/20 05:56:52;;;;;;;9.82;2.95;;;;;;;12.70;83.05;98873.84;5014702;28;20140;-76
2023/11/20 05:59:18;;;;;;;9.05;3.15;;;;;;;12.69;82.82;98882.75;5014710;28;20104;-73
2023/11/20 06:01:45;;;;;;;7.38;3.40;;;;;;;12.68;82.79;98875.78;5014687;28;20116;-74
2023/11/20 06:04:14;;;;;;;10.25;3.17;;;;;;;12.67;82.84;98872.31;5014069;28;20046;-76
2023/11/20 06:06:41;;;;;;;13.52;3.40;;;;;;;12.67;83.04;98880.22;5014663;28;20478;-74
2023/11/20 06:09:10;;;;;;;8.63;3.20;;;;;;;12.68;83.12;98873.16;5014606;28;20058;-73
2023/11/20 06:11:37;;;;;;;9.00;3.88;;;;;;;12.67;83.00;98877.59;5008321;28;20057;-72
2023/11/20 06:14:03;;;;;;;10.20;3.78;;;;;;;12.67;82.90;98885.50;5012836;28;20100;-75
2023/11/20 06:16:30;;;;;;;9.95;3.83;;;;;;;12.68;82.77;98879.28;5013724;28;20050;-74
2023/11/20 06:18:56;;;;;;;7.90;3.80;;;;;;;12.69;82.85;98880.09;5014213;28;20046;-77
2023/11/20 06:21:23;;;;;;;11.50;4.20;;;;;;;12.67;82.52;98889.97;5013389;28;20056;-75
2023/11/20 06:23:50;;;;;;;7.10;3.88;;;;;;;12.67;82.63;98890.78;4996237;28;20046;-75
2023/11/20 06:26:16;;;;;;;13.02;4.20;;;;;;;12.66;82.71;98888.25;5013729;28;20136;-73
2023/11/20 06:28:43;;;;;;;12.23;4.80;;;;;;;12.66;82.72;98894.38;5005914;28;20046;-73
2023/11/20 06:31:11;;;;;;;12.13;4.25;;;;;;;12.66;82.66;98888.25;4996145;28;20077;-76
2023/11/20 06:33:38;;;;;;;14.77;4.07;;;;;;;12.64;82.67;98894.50;5013397;28;20050;-77
2023/11/20 06:36:06;;;;;;;18.92;4.53;;;;;;;12.62;82.55;98899.09;5013813;28;20073;-77
2023/11/20 06:38:35;;;;;;;14.68;4.60;;;;;;;12.62;82.54;98891.16;4996100;28;20081;-73
2023/11/20 06:41:04;;;;;;;15.35;4.85;;;;;;;12.59;82.40;98894.03;5013281;28;20198;-73
2023/11/20 06:43:31;;;;;;;13.85;3.97;;;;;;;12.62;82.70;98898.22;5011888;28;20050;-74
2023/11/20 06:45:59;;;;;;;18.80;5.30;;;;;;;12.61;82.74;98909.75;5012369;28;20050;-74
2023/11/20 06:48:27;;;;;;;22.27;5.10;;;;;;;12.59;82.75;98906.38;4994844;28;20141;-74
2023/11/20 06:50:54;;;;;;;16.60;4.50;;;;;;;12.60;82.68;98916.00;5012700;28;20123;-73
2023/11/20 06:53:21;;;;;;;17.85;4.28;;;;;;;12.59;82.65;98906.38;5012791;28;20049;-76
2023/11/20 06:55:48;;;;;;;16.13;4.13;;;;;;;12.59;82.81;98915.16;5012324;28;20048;-73
2023/11/20 06:58:14;;;;;;;21.92;4.22;;;;;;;12.59;82.72;98920.44;5012844;28;20132;-74
2023/11/20 07:00:42;;;;;;;19.80;4.53;;;;;;;12.61;82.80;98918.53;4987934;28;20057;-77
2023/11/20 07:03:09;;;;;;;16.65;3.95;;;;;;;12.61;82.68;98922.97;5005190;28;20127;-74
2023/11/20 07:05:37;;;;;;;18.38;4.18;;;;;;;12.61;82.52;98920.31;5012528;28;20096;-74
2023/11/20 07:08:07;;;;;;;19.55;3.88;;;;;;;12.60;82.60;98922.13;5012029;28;20100;-74
2023/11/20 07:10:34;;;;;;;23.92;4.13;;;;;;;12.61;82.30;98929.09;5012492;28;20510;-76
2023/11/20 07:13:01;;;;;;;21.73;3.92;;;;;;;12.61;82.75;98939.66;5012354;28;20100;-75
2023/11/20 07:15:28;;;;;;;20.65;4.03;;;;;;;12.61;82.53;98936.16;5012657;28;20150;-77
2023/11/20 07:17:55;;;;;;;21.25;4.32;;;;;;;12.61;82.44;98939.66;5012716;28;20490;-74
2023/11/20 07:20:23;;;;;;;25.52;5.35;;;;;;;12.61;82.35;98947.56;4995476;28;20060;-74
2023/11/20 07:22:49;;;;;;;13.35;3.80;;;;;;;12.61;82.34;98944.09;5004779;28;20042;-74
2023/11/20 07:25:16;;;;;;;19.63;4.60;;;;;;;12.61;82.10;98946.72;5012776;28;20041;-73
2023/11/20 07:27:43;;;;;;;18.63;4.18;;;;;;;12.60;82.42;98951.16;5012662;28;20061;-78
2023/11/20 07:30:09;;;;;;;18.65;3.97;;;;;;;12.59;82.38;98952.13;5012706;28;20057;-73
2023/11/20 07:32:36;;;;;;;30.50;5.78;;;;;;;12.60;82.28;98950.34;4995016;28;20072;-73
2023/11/20 07:35:04;;;;;;;17.10;4.75;;;;;;;12.61;82.10;98958.13;4994917;28;20538;-80
2023/11/20 07:37:31;;;;;;;19.40;3.90;;;;;;;12.60;82.25;98964.34;5012171;28;20487;-73
2023/11/20 07:40:00;;;;;;;22.80;4.68;;;;;;;12.60;82.00;98960.91;5012332;28;20123;-75
2023/11/20 07:42:27;;;;;;;21.02;4.70;;;;;;;12.59;82.29;98965.31;4994706;28;20060;-73
2023/11/20 07:44:54;;;;;;;26.58;4.50;;;;;;;12.60;82.24;98968.81;4994840;28;20149;-78
2023/11/20 07:47:21;;;;;;;22.30;4.18;;;;;;;12.60;82.21;98969.63;4994766;28;20129;-80
2023/11/20 07:49:48;;;;;;;20.83;4.88;;;;;;;12.60;82.32;98966.19;5012019;28;20070;-74
2023/11/20 07:52:14;;;;;;;18.60;4.00;;;;;;;12.60;82.28;98964.34;5011823;28;20108;-77
2023/11/20 07:54:41;;;;;;;21.67;4.07;;;;;;;12.60;82.43;98964.34;5011859;28;20053;-74
2023/11/20 07:57:11;;;;;;;22.75;4.85;;;;;;;12.62;82.42;98975.66;5012032;28;20487;-74
2023/11/20 07:59:38;;;;;;;15.70;4.32;;;;;;;12.62;82.34;98967.72;5012018;28;20054;-73
2023/11/20 08:02:05;;;;;;;22.98;4.13;;;;;;;12.62;82.19;98967.72;4994478;28;20045;-75
2023/11/20 08:04:31;;;;;;;27.55;4.93;;;;;;;12.62;81.99;98967.72;5011958;28;20053;-73
2023/11/20 08:06:58;;;;;;;20.38;5.35;;;;;;;12.62;82.06;98973.00;5011967;28;20054;-73
2023/11/20 08:09:25;;;;;;;20.02;4.45;;;;;;;12.63;82.04;98973.84;5012227;28;20049;-75
2023/11/20 08:11:51;;;;;;;22.67;4.70;;;;;;;12.61;82.08;98978.41;5004251;28;20069;-77
2023/11/20 08:14:18;;;;;;;22.00;5.32;;;;;;;12.62;81.68;98977.44;5011730;28;20133;-74
2023/11/20 08:16:47;;;;;;;14.15;4.40;;;;;;;12.63;81.71;98984.41;5011816;28;20053;-75
2023/11/20 08:19:14;;;;;;;19.25;4.70;;;;;;;12.63;81.75;98971.19;4994466;28;20053;-73
2023/11/20 08:21:41;;;;;;;21.88;4.97;;;;;;;12.63;81.75;98976.47;5003975;28;20050;-75
2023/11/20 08:24:11;;;;;;;28.10;4.50;;;;;;;12.63;81.75;98979.97;5004211;28;20053;-74
2023/11/20 08:26:38;;;;;;;19.60;4.75;;;;;;;12.63;81.59;98984.41;5011897;28;20050;-73
2023/11/20 08:29:06;;;;;;;21.10;4.68;;;;;;;12.62;81.71;98988.00;5011753;28;20049;-80
2023/11/20 08:31:33;;;;;;;27.02;4.40;;;;;;;12.63;81.84;98993.16;5011320;28;20517;-75
2023/11/20 08:33:59;;;;;;;20.10;4.60;;;;;;;12.63;81.64;98985.25;5011494;28;20064;-76
2023/11/20 08:36:26;;;;;;;19.48;4.90;;;;;;;12.63;81.77;98987.88;5011631;28;20081;-76
2023/11/20 08:38:52;;;;;;;27.08;5.82;;;;;;;12.63;81.72;98995.81;5011317;28;20050;-74
2023/11/20 08:41:19;;;;;;;23.20;5.15;;;;;;;12.62;81.55;98991.50;5011674;28;20137;-79
2023/11/20 08:43:45;;;;;;;16.95;4.45;;;;;;;12.64;81.48;98997.47;5011262;28;20078;-76
2023/11/20 08:46:12;;;;;;;15.85;3.35;;;;;;;12.66;81.76;98988.59;5011618;28;20133;-75
2023/11/20 08:48:42;;;;;;;19.48;4.93;;;;;;;12.66;81.39;98988.59;5011365;28;20140;-77
2023/11/20 08:51:08;;;;;;;13.93;4.53;;;;;;;12.67;81.62;98990.28;5006482;28;20046;-74
2023/11/20 08:53:35;;;;;;;29.60;5.15;;;;;;;12.66;81.31;98993.88;4990928;28;20614;-74
2023/11/20 08:56:02;;;;;;;14.88;4.20;;;;;;;12.66;81.31;98996.50;5011458;28;20049;-73
2023/11/20 08:58:29;;;;;;;19.25;5.07;;;;;;;12.67;81.32;98996.41;4993978;28;20111;-75
2023/11/20 09:00:55;;;;;;;24.63;5.00;;;;;;;12.67;81.41;98998.22;4986069;28;20188;-74
2023/11/20 09:03:22;;;;;;;20.13;4.20;;;;;;;12.66;81.23;98994.72;4993669;28;20073;-73
2023/11/20 09:05:48;;;;;;;16.38;4.72;;;;;;;12.67;81.10;98998.22;5013469;28;20049;-79
2023/11/20 09:08:15;;;;;;;25.35;5.10;;;;;;;12.66;81.05;99001.78;4998007;28;20132;-75
2023/11/20 09:10:41;;;;;;;15.18;3.60;;;;;;;12.64;81.01;98997.47;4999588;28;20113;-74
2023/11/20 09:13:08;;;;;;;17.98;5.05;;;;;;;12.64;81.02;99001.94;5015124;28;20065;-75
2023/11/20 09:15:36;;;;;;;16.25;4.30;;;;;;;12.63;81.29;99001.09;5015428;28;20458;-73
2023/11/20 09:18:03;;;;;;;21.42;4.53;;;;;;;12.62;81.43;98994.13;5007063;28;20132;-73
2023/11/20 09:20:29;;;;;;;22.58;4.32;;;;;;;12.62;81.21;99001.19;5015271;28;20635;-79
2023/11/20 09:22:57;;;;;;;18.50;4.45;;;;;;;12.61;81.44;99007.44;5014903;28;20057;-73
2023/11/20 09:25:24;;;;;;;16.00;4.07;;;;;;;12.61;81.33;99016.22;4989773;28;20092;-76
2023/11/20 09:27:51;;;;;;;18.17;4.05;;;;;;;12.61;81.49;99018.00;5006968;28;20054;-74
2023/11/20 09:30:17;;;;;;;18.60;4.47;;;;;;;12.60;81.44;99017.16;5015186;28;20049;-73
2023/11/20 09:32:46;;;;;;;20.65;4.22;;;;;;;12.60;81.33;99011.88;5014691;28;20056;-75
2023/11/20 09:35:15;;;;;;;20.00;4.00;;;;;;;12.61;81.55;99016.22;5009964;28;20057;-75
2023/11/20 09:37:42;;;;;;;18.92;4.05;;;;;;;12.63;81.74;99016.06;5012538;28;20479;-74
2023/11/20 09:40:11;;;;;;;14.55;3.38;;;;;;;12.66;81.83;99009.72;5010182;28;20502;-78
2023/11/20 09:42:40;;;;;;;22.55;3.58;;;;;;;12.68;81.67;99010.44;4993389;28;20487;-73
2023/11/20 09:45:24;;;;;;;17.27;3.20;;;;;;;12.68;80.63;99021.00;5007608;28;20054;-75
2023/11/20 09:47:51;;;;;;;20.40;4.45;;;;;;;12.74;81.72;99017.88;5014699;28;20053;-74
2023/11/20 09:50:19;;;;;;;22.20;4.13;;;;;;;12.76;81.72;99015.97;5008906;28;20074;-73
2023/11/20 09:52:50;;;;;;;14.32;3.40;;;;;;;12.77;81.19;99022.94;5012686;28;20089;-80
2023/11/20 09:55:18;;;;;;;16.48;3.33;;;;;;;12.82;81.35;99022.59;5014481;28;20042;-75
2023/11/20 09:57:44;;;;;;;16.70;3.38;;;;;;;12.85;81.49;99028.47;5006607;28;20050;-73
2023/11/20 10:00:15;;;;;;;19.02;3.97;;;;;;;12.85;80.92;99028.47;4989010;28;20057;-75
2023/11/20 10:02:46;;;;;;;20.48;3.90;;;;;;;12.87;80.76;99033.63;5014423;28;20073;-74
2023/11/20 10:05:36;;;;;;;18.83;3.78;;;;;;;12.83;79.48;99033.03;5014322;28;20049;-74
2023/11/20 10:08:03;;;;;;;24.60;4.80;;;;;;;12.89;81.04;99042.25;5014271;28;20489;-77
2023/11/20 10:10:30;;;;;;;20.38;3.85;;;;;;;12.89;80.93;99037.81;5014449;28;20038;-73
2023/11/20 10:12:58;;;;;;;20.00;4.00;;;;;;;12.92;80.64;99043.81;5013950;28;20108;-72
2023/11/20 10:15:25;;;;;;;19.50;4.30;;;;;;;12.94;80.45;99028.69;5008015;28;20058;-73
2023/11/20 10:17:51;;;;;;;21.17;3.92;;;;;;;12.95;80.37;99036.50;5010732;28;20136;-76
2023/11/20 10:20:18;;;;;;;22.85;4.00;;;;;;;12.96;80.55;99027.63;5007696;28;20457;-74
2023/11/20 10:22:47;;;;;;;20.70;4.40;;;;;;;12.98;80.75;99032.78;5005938;28;20137;-74
2023/11/20 10:25:14;;;;;;;16.67;4.05;;;;;;;12.98;80.17;99028.31;5006425;28;20050;-73
2023/11/20 10:27:40;;;;;;;20.17;4.82;;;;;;;12.98;80.13;99033.59;4996187;28;20072;-76
2023/11/20 10:30:09;;;;;;;26.05;4.93;;;;;;;12.98;79.66;99030.97;5006411;28;20136;-73
2023/11/20 10:32:40;;;;;;;16.05;4.38;;;;;;;12.96;78.80;99032.03;5013534;28;20041;-77
2023/11/20 10:35:14;;;;;;;21.30;4.75;;;;;;;12.94;78.65;99031.34;5006000;28;20041;-74
2023/11/20 10:37:58;;;;;;;22.08;4.63;;;;;;;12.95;79.17;99030.38;5013438;28;20049;-76
2023/11/20 10:40:25;;;;;;;18.23;4.15;;;;;;;13.00;80.42;99017.63;4996383;28;20038;-74
2023/11/20 10:42:55;;;;;;;20.45;4.82;;;;;;;13.02;80.41;99018.38;4988070;28;20046;-74
2023/11/20 10:45:23;;;;;;;23.52;5.13;;;;;;;13.09;81.39;99024.81;5013593;28;20132;-74
2023/11/20 10:47:50;;;;;;;25.80;5.13;;;;;;;13.15;81.72;99019.06;5013465;28;20093;-75
2023/11/20 10:50:17;;;;;;;25.50;5.22;;;;;;;13.23;81.43;99022.91;5013525;28;20410;-74
2023/11/20 10:52:47;;;;;;;22.92;4.70;;;;;;;13.29;80.75;99027.69;4995404;28;20479;-75
2023/11/20 10:55:14;;;;;;;20.85;4.85;;;;;;;13.34;79.92;99020.22;5013663;28;20054;-73
2023/11/20 10:57:41;;;;;;;21.08;4.32;;;;;;;13.36;79.38;99026.25;5005350;28;20086;-74
2023/11/20 11:00:14;;;;;;;13.68;3.72;;;;;;;13.37;78.85;99019.97;5005856;28;20049;-74
2023/11/20 11:02:42;;;;;;;22.42;4.18;;;;;;;13.38;78.88;99015.56;4995689;28;20049;-75
2023/11/20 11:05:12;;;;;;;20.42;5.32;;;;;;;13.37;78.72;99005.91;5000728;28;20042;-75
2023/11/20 11:07:40;;;;;;;17.92;4.47;;;;;;;13.36;78.26;99002.44;4984303;28;20074;-79
2023/11/20 11:10:10;;;;;;;21.42;4.47;;;;;;;13.35;78.21;98995.47;5012909;28;20104;-78
2023/11/20 11:12:42;;;;;;;22.27;4.28;;;;;;;13.33;77.85;98996.56;5012771;28;20125;-74
2023/11/20 11:15:15;;;;;;;19.67;4.43;;;;;;;13.31;78.00;98991.41;5013084;28;20494;-75
2023/11/20 11:17:58;;;;;;;23.33;4.75;;;;;;;13.24;76.42;98995.50;4987818;28;20052;-74
2023/11/20 11:20:35;;;;;;;19.80;5.25;;;;;;;13.23;76.61;98997.31;4989820;28;20056;-74
2023/11/20 11:23:07;;;;;;;21.30;5.28;;;;;;;13.20;77.02;99000.19;5012596;28;20494;-74
2023/11/20 11:25:38;;;;;;;18.65;4.72;;;;;;;13.14;76.45;98993.63;5012990;28;20740;-74
2023/11/20 11:28:10;;;;;;;23.13;4.30;;;;;;;13.09;76.96;98990.47;5012074;28;20413;-75
2023/11/20 11:30:39;;;;;;;19.55;4.63;;;;;;;13.04;77.27;98997.94;5013128;28;20046;-73
2023/11/20 11:33:42;;;;;;;23.42;4.65;;;;;;;12.94;76.41;98997.84;5012503;28;20506;-79
2023/11/20 11:36:09;;;;;;;17.73;4.95;;;;;;;12.93;77.72;98980.28;5012744;28;20046;-73
2023/11/20 11:38:44;;;;;;;18.85;3.78;;;;;;;12.85;77.36;98980.06;4995100;28;20049;-75
2023/11/20 11:41:37;;;;;;;13.82;4.85;;;;;;;12.76;77.50;98987.75;4983979;28;20069;-74
2023/11/20 11:44:25;;;;;;;18.73;4.13;;;;;;;12.73;77.68;98995.09;4993709;28;20447;-75
2023/11/20 11:46:55;;;;;;;18.88;4.85;;;;;;;12.74;78.58;98996.75;5012814;28;20376;-75
2023/11/20 11:49:23;;;;;;;16.70;5.35;;;;;;;12.72;78.61;98983.69;5012416;28;20042;-74
2023/11/20 11:51:57;;;;;;;15.70;4.60;;;;;;;12.69;78.63;98988.38;5012260;28;20057;-73
2023/11/20 11:54:24;;;;;;;19.33;5.00;;;;;;;12.69;79.33;98983.09;5012656;28;20053;-75
2023/11/20 11:57:13;;;;;;;19.70;5.32;;;;;;;12.68;79.45;98984.03;5004298;28;20458;-74
2023/11/20 11:59:41;;;;;;;20.77;5.43;;;;;;;12.68;79.63;98987.53;5012274;28;20554;-77
2023/11/20 12:02:10;;;;;;;23.48;5.85;;;;;;;12.69;79.89;98983.94;5011980;28;20041;-80
2023/11/20 12:04:48;;;;;;;22.83;5.47;;;;;;;12.68;79.07;98984.03;5012202;28;20434;-74
2023/11/20 12:07:16;;;;;;;18.63;4.88;;;;;;;12.73;79.99;98980.09;5012216;28;20133;-77
2023/11/20 12:10:00;;;;;;;23.27;6.00;;;;;;;12.72;78.95;98980.22;4994528;28;20046;-76